Time;durP1;ratioP1;P1;durP2;ratioP2;P2;SDS_P1;SDS_P2;PMS_P1;PMS_P2;Temp;Humidity;BMP_temperature;BMP_pressure;BME280_temperature;BME280_humidity;BME280_pressure;Samples;Min_cycle;Max_cycle;Signal;HPM_P1;HPM_P2
2021/09/15 12:30:11;;;;;;;2.40;2.30;;;19.30;99.90;;;;;;5091002;28;20475;-68
2021/09/15 12:32:39;;;;;;;3.97;2.50;;;19.40;99.90;;;;;;5090854;28;20180;-68
2021/09/15 12:35:20;;;;;;;2.97;2.78;;;19.50;99.90;;;;;;5090854;28;20171;-66
2021/09/15 12:37:46;;;;;;;2.05;1.95;;;19.70;99.90;;;;;;5090690;28;20170;-66
2021/09/15 12:40:19;;;;;;;2.28;2.17;;;19.80;99.90;;;;;;5090799;28;20168;-66
2021/09/15 12:43:02;;;;;;;1.70;1.70;;;19.80;99.90;;;;;;5090676;28;20209;-66
2021/09/15 12:45:29;;;;;;;1.80;1.70;;;19.80;99.90;;;;;;5090723;28;20281;-66
2021/09/15 12:47:55;;;;;;;2.10;2.10;;;19.80;99.90;;;;;;5090547;28;20190;-66
2021/09/15 12:50:23;;;;;;;2.78;2.58;;;19.80;99.90;;;;;;5090605;28;20188;-66
2021/09/15 12:53:10;;;;;;;3.28;3.08;;;19.80;99.90;;;;;;5090400;28;20644;-66
2021/09/15 12:55:48;;;;;;;2.65;2.55;;;19.60;99.90;;;;;;5090200;28;20209;-66
2021/09/15 12:58:43;;;;;;;4.18;3.60;;;19.70;99.90;;;;;;5090412;28;20295;-66
2021/09/15 13:01:19;;;;;;;5.47;5.07;;;19.70;99.90;;;;;;5089976;28;20206;-66
2021/09/15 13:03:48;;;;;;;5.82;5.20;;;19.70;99.90;;;;;;5090280;28;20217;-67
2021/09/15 13:06:16;;;;;;;7.43;6.05;;;19.60;99.90;;;;;;5090235;28;20518;-66
2021/09/15 13:08:54;;;;;;;9.63;6.70;;;19.60;99.90;;;;;;5090149;28;20217;-66
2021/09/15 13:11:24;;;;;;;7.70;6.95;;;19.50;99.90;;;;;;5090074;28;20228;-66
2021/09/15 13:13:50;;;;;;;9.73;8.75;;;19.40;99.90;;;;;;5090074;28;20228;-67
2021/09/15 13:16:21;;;;;;;11.32;10.32;;;19.40;99.90;;;;;;5090068;28;20168;-66
2021/09/15 13:18:47;;;;;;;11.63;10.52;;;19.50;99.90;;;;;;5090015;28;20164;-66
2021/09/15 13:21:13;;;;;;;12.25;11.15;;;19.50;99.90;;;;;;5089922;28;20190;-66
2021/09/15 13:23:39;;;;;;;12.07;10.88;;;19.50;99.90;;;;;;5090422;28;20172;-66
2021/09/15 13:26:04;;;;;;;17.15;12.82;;;19.50;99.90;;;;;;5089884;28;20329;-66
2021/09/15 13:28:30;;;;;;;14.75;12.50;;;19.50;99.90;;;;;;5088336;28;20229;-66
2021/09/15 13:30:56;;;;;;;14.18;12.88;;;19.40;99.90;;;;;;5089834;28;20571;-67
2021/09/15 13:33:22;;;;;;;16.25;14.50;;;19.40;99.90;;;;;;5089726;28;20171;-66
2021/09/15 13:35:48;;;;;;;18.35;14.80;;;19.40;99.90;;;;;;5089730;28;20501;-67
2021/09/15 13:38:14;;;;;;;19.98;17.83;;;19.40;99.90;;;;;;5089599;28;20183;-66
2021/09/15 13:40:39;;;;;;;17.05;15.00;;;19.50;99.90;;;;;;5079202;28;20702;-66
2021/09/15 13:43:05;;;;;;;21.88;17.70;;;19.50;99.90;;;;;;5076086;28;20172;-66
2021/09/15 13:45:31;;;;;;;19.35;16.02;;;19.70;99.90;;;;;;5076050;28;20233;-66
2021/09/15 13:47:57;;;;;;;20.77;16.02;;;19.90;99.90;;;;;;5075897;28;20196;-66
2021/09/15 13:50:24;;;;;;;18.27;15.05;;;20.10;99.90;;;;;;5074653;28;20180;-66
2021/09/15 13:52:51;;;;;;;19.98;14.43;;;20.30;99.90;;;;;;5075870;28;20195;-66
2021/09/15 13:55:19;;;;;;;18.17;14.55;;;20.30;99.90;;;;;;5075934;28;20170;-66
2021/09/15 13:57:46;;;;;;;19.17;13.63;;;20.50;99.90;;;;;;5075881;28;20196;-66
2021/09/15 14:00:13;;;;;;;15.80;14.18;;;20.40;99.90;;;;;;5075832;28;20183;-66
2021/09/15 14:02:38;;;;;;;18.98;14.45;;;20.40;99.90;;;;;;5075780;28;20656;-66
2021/09/15 14:05:06;;;;;;;15.57;13.98;;;20.40;99.90;;;;;;5075908;28;20172;-67
2021/09/15 14:07:33;;;;;;;20.45;15.07;;;20.40;99.90;;;;;;5075639;28;20174;-66
2021/09/15 14:09:58;;;;;;;19.83;14.98;;;20.40;99.90;;;;;;5075714;28;20164;-66
2021/09/15 14:12:24;;;;;;;18.27;14.52;;;20.40;99.90;;;;;;5075766;28;20179;-67
2021/09/15 14:14:50;;;;;;;18.63;13.27;;;20.40;99.90;;;;;;5075654;28;20708;-67
2021/09/15 14:17:15;;;;;;;14.88;12.73;;;20.50;99.90;;;;;;5075615;28;20484;-66
2021/09/15 14:19:42;;;;;;;15.23;12.98;;;20.60;99.90;;;;;;5075590;28;20190;-66
2021/09/15 14:22:08;;;;;;;16.13;13.73;;;20.60;99.90;;;;;;5075518;28;20644;-67
2021/09/15 14:24:34;;;;;;;15.95;14.15;;;20.60;99.90;;;;;;5075532;28;20174;-66
2021/09/15 14:26:59;;;;;;;16.13;13.27;;;20.50;99.90;;;;;;5075575;28;20199;-66
2021/09/15 14:29:25;;;;;;;17.35;13.40;;;20.40;99.90;;;;;;5075129;28;20250;-67
2021/09/15 14:31:50;;;;;;;19.27;14.85;;;20.30;99.90;;;;;;5074211;28;20625;-66
2021/09/15 14:34:16;;;;;;;22.20;15.35;;;20.30;99.90;;;;;;5075131;28;20164;-66
2021/09/15 14:36:42;;;;;;;20.73;15.63;;;20.20;99.90;;;;;;5075027;28;20233;-66
2021/09/15 14:39:07;;;;;;;17.52;14.45;;;20.20;99.90;;;;;;5073622;28;20172;-67
2021/09/15 14:41:35;;;;;;;18.45;15.48;;;20.20;99.90;;;;;;5074881;28;20661;-66
2021/09/15 14:44:01;;;;;;;22.52;16.65;;;20.10;99.90;;;;;;5074892;28;20168;-66
2021/09/15 14:46:26;;;;;;;17.92;15.23;;;20.10;99.90;;;;;;5074769;28;20225;-67
2021/09/15 14:48:52;;;;;;;18.77;14.88;;;20.00;99.90;;;;;;5074834;28;20237;-66
2021/09/15 14:51:18;;;;;;;18.70;15.75;;;20.00;99.90;;;;;;5073791;28;20192;-67
2021/09/15 14:53:44;;;;;;;24.15;16.92;;;20.00;99.90;;;;;;5074823;28;20168;-66
2021/09/15 14:56:09;;;;;;;21.27;15.20;;;20.00;99.90;;;;;;5074766;28;20203;-67
2021/09/15 14:58:37;;;;;;;25.90;16.15;;;20.00;99.90;;;;;;5074619;28;20199;-66
2021/09/15 15:01:03;;;;;;;24.08;16.58;;;19.90;99.90;;;;;;5074452;28;20663;-66
2021/09/15 15:03:33;;;;;;;22.42;16.63;;;19.90;99.90;;;;;;5074410;28;20217;-66
2021/09/15 15:06:02;;;;;;;25.30;16.88;;;19.90;99.90;;;;;;5074289;28;20495;-66
2021/09/15 15:08:29;;;;;;;26.33;17.05;;;19.90;99.90;;;;;;5074186;28;20199;-66
2021/09/15 15:10:54;;;;;;;23.23;16.85;;;19.90;99.90;;;;;;5074278;28;20171;-66
2021/09/15 15:13:20;;;;;;;23.35;17.00;;;19.90;99.90;;;;;;5074209;28;20567;-67
2021/09/15 15:15:47;;;;;;;25.38;18.83;;;19.80;99.90;;;;;;5074198;28;20620;-66
2021/09/15 15:18:13;;;;;;;25.77;18.30;;;19.80;99.90;;;;;;5074122;28;20168;-66
2021/09/15 15:57:35;;;;;;;48.67;27.85;;;19.00;99.90;;;;;;5070593;28;20597;-68
2021/09/15 16:00:00;;;;;;;50.92;29.60;;;19.00;99.90;;;;;;5070546;28;20168;-68
2021/09/15 16:02:27;;;;;;;47.17;27.98;;;19.00;99.90;;;;;;5070518;28;20161;-68
2021/09/15 16:04:53;;;;;;;45.92;29.23;;;19.00;99.90;;;;;;5070450;28;20171;-68
2021/09/15 16:07:19;;;;;;;46.72;28.52;;;19.00;99.90;;;;;;5070399;28;20587;-68
2021/09/15 16:09:44;;;;;;;50.33;28.08;;;19.00;99.90;;;;;;5070339;28;20671;-68
2021/09/15 16:12:10;;;;;;;45.97;28.83;;;19.00;99.90;;;;;;5070286;28;20179;-68
2021/09/15 16:14:35;;;;;;;47.50;29.33;;;18.90;99.90;;;;;;5070139;28;20180;-68
2021/09/15 16:17:01;;;;;;;42.45;26.02;;;18.90;99.90;;;;;;5070115;28;20208;-68
2021/09/15 17:16:47;;;;;;;29.58;21.42;;;19.40;99.90;;;;;;5090808;27;20939;-67
2021/09/15 17:19:13;;;;;;;26.40;19.17;;;17.50;99.90;;;;;;5090720;28;20277;-68
2021/09/15 17:21:38;;;;;;;33.13;19.65;;;17.50;99.90;;;;;;5090653;28;20507;-68
2021/09/15 17:24:04;;;;;;;25.98;18.88;;;17.50;99.90;;;;;;5089257;28;20156;-68
2021/09/15 17:26:30;;;;;;;24.40;18.83;;;17.60;99.90;;;;;;5090556;28;20179;-68
2021/09/15 17:28:55;;;;;;;17.52;15.15;;;17.60;99.90;;;;;;5090550;28;20172;-68
2021/09/15 17:31:21;;;;;;;20.50;15.48;;;17.60;99.90;;;;;;5090561;28;20252;-68
2021/09/15 17:33:46;;;;;;;22.08;15.80;;;17.50;99.90;;;;;;5090499;28;20698;-68
2021/09/15 17:36:12;;;;;;;20.90;14.30;;;17.40;99.90;;;;;;5090349;28;20199;-68
2021/09/15 17:38:39;;;;;;;22.52;16.00;;;17.50;99.90;;;;;;5090407;28;20667;-68
